createdAt,value
2023-12-22T00:00:03.783Z,17.44
2023-12-22T00:00:15.766Z,17.44
2023-12-22T00:00:26.793Z,17.44
2023-12-22T00:00:38.842Z,17.42
2023-12-22T00:00:49.830Z,17.42
2023-12-22T00:01:00.831Z,17.44
2023-12-22T00:01:11.835Z,17.46
2023-12-22T00:01:23.806Z,17.45
2023-12-22T00:01:34.759Z,17.46
2023-12-22T00:01:45.759Z,17.46
2023-12-22T00:01:56.825Z,17.45
2023-12-22T00:02:08.752Z,17.46
2023-12-22T00:02:19.789Z,17.48
2023-12-22T00:02:31.788Z,17.49
2023-12-22T00:02:43.828Z,17.48
2023-12-22T00:02:54.781Z,17.48
2023-12-22T00:03:05.878Z,17.48
2023-12-22T00:03:17.860Z,17.48
2023-12-22T00:03:29.892Z,17.46
2023-12-22T00:03:40.802Z,17.48
2023-12-22T00:03:51.785Z,17.46
2023-12-22T00:04:02.733Z,17.46
2023-12-22T00:04:13.784Z,17.46
2023-12-22T00:04:24.745Z,17.45
2023-12-22T00:04:35.854Z,17.45
2023-12-22T00:04:47.826Z,17.45
2023-12-22T00:04:58.777Z,17.48
2023-12-22T00:05:09.749Z,17.46
2023-12-22T00:05:21.780Z,17.46
2023-12-22T00:05:32.742Z,17.45
2023-12-22T00:05:43.809Z,17.46
2023-12-22T00:05:54.831Z,17.46
2023-12-22T00:06:05.810Z,17.45
2023-12-22T00:06:16.782Z,17.45
2023-12-22T00:06:27.744Z,17.46
2023-12-22T00:06:38.769Z,17.46
2023-12-22T00:06:49.785Z,17.48
2023-12-22T00:07:01.759Z,17.46
2023-12-22T00:07:12.834Z,17.49
2023-12-22T00:07:24.806Z,17.49
2023-12-22T00:07:36.875Z,17.51
2023-12-22T00:07:48.994Z,17.48
2023-12-22T00:08:00.900Z,17.48
2023-12-22T00:08:12.839Z,17.49
2023-12-22T00:08:24.768Z,17.48
2023-12-22T00:08:35.850Z,17.48
2023-12-22T00:08:47.736Z,17.48
2023-12-22T00:08:58.773Z,17.48
2023-12-22T00:09:09.788Z,17.48
2023-12-22T00:09:21.809Z,17.48
2023-12-22T00:09:33.789Z,17.45
2023-12-22T00:09:45.773Z,17.45
2023-12-22T00:09:56.795Z,17.48
2023-12-22T00:10:08.777Z,17.46
2023-12-22T00:10:20.826Z,17.46
2023-12-22T00:10:31.802Z,17.46
2023-12-22T00:10:42.877Z,17.46
2023-12-22T00:10:53.803Z,17.49
2023-12-22T00:11:04.770Z,17.48
2023-12-22T00:11:16.762Z,17.46
2023-12-22T00:11:27.738Z,17.48
2023-12-22T00:11:38.759Z,17.48
2023-12-22T00:11:50.764Z,17.46
2023-12-22T00:12:01.784Z,17.48
2023-12-22T00:12:13.765Z,17.45
2023-12-22T00:12:24.780Z,17.46
2023-12-22T00:12:36.770Z,17.46
2023-12-22T00:12:47.801Z,17.48
2023-12-22T00:12:59.797Z,17.49
2023-12-22T00:13:11.801Z,17.48
2023-12-22T00:13:22.815Z,17.48
2023-12-22T00:13:35.167Z,17.48
2023-12-22T00:13:44.864Z,17.46
2023-12-22T00:13:56.816Z,17.48
2023-12-22T00:14:07.829Z,17.46
2023-12-22T00:14:19.784Z,17.48
2023-12-22T00:14:31.760Z,17.46
2023-12-22T00:14:42.783Z,17.46
2023-12-22T00:14:53.784Z,17.45
2023-12-22T00:15:05.770Z,17.46
2023-12-22T00:15:17.771Z,17.45
2023-12-22T00:15:29.756Z,17.45
2023-12-22T00:15:40.773Z,17.46
2023-12-22T00:15:51.837Z,17.46
2023-12-22T00:16:02.751Z,17.46
2023-12-22T00:16:13.811Z,17.46
2023-12-22T00:16:24.787Z,17.46
2023-12-22T00:16:36.814Z,17.45
2023-12-22T00:16:47.804Z,17.45
2023-12-22T00:16:58.804Z,17.45
2023-12-22T00:17:09.771Z,17.44
2023-12-22T00:17:21.778Z,17.42
2023-12-22T00:17:32.855Z,17.45
2023-12-22T00:17:43.828Z,17.42
2023-12-22T00:17:54.786Z,17.42
2023-12-22T00:18:05.752Z,17.42
2023-12-22T00:18:16.919Z,17.42
2023-12-22T00:18:27.857Z,17.42
2023-12-22T00:18:39.858Z,17.44
2023-12-22T00:18:50.779Z,17.45
2023-12-22T00:19:01.885Z,17.45
2023-12-22T00:19:13.852Z,17.46
2023-12-22T00:19:24.888Z,17.45
2023-12-22T00:19:36.909Z,17.46
2023-12-22T00:19:48.906Z,17.45
2023-12-22T00:19:59.851Z,17.48
2023-12-22T00:20:10.816Z,17.46
2023-12-22T00:20:21.814Z,17.45
2023-12-22T00:20:32.764Z,17.48
2023-12-22T00:20:44.796Z,17.45
2023-12-22T00:20:56.787Z,17.45
2023-12-22T00:21:08.783Z,17.42
2023-12-22T00:21:20.800Z,17.45
2023-12-22T00:21:32.820Z,17.44
2023-12-22T00:21:44.813Z,17.45
2023-12-22T00:21:56.805Z,17.46
2023-12-22T00:22:08.794Z,17.46
2023-12-22T00:22:20.824Z,17.46
2023-12-22T00:22:31.865Z,17.48
2023-12-22T00:22:43.811Z,17.46
2023-12-22T00:22:55.836Z,17.48
2023-12-22T00:23:07.823Z,17.46
2023-12-22T00:23:19.817Z,17.46
2023-12-22T00:23:31.804Z,17.46
2023-12-22T00:23:43.801Z,17.45
2023-12-22T00:23:55.807Z,17.49
2023-12-22T00:24:07.794Z,17.48
2023-12-22T00:24:19.768Z,17.48
2023-12-22T00:24:30.786Z,17.48
2023-12-22T00:24:41.811Z,17.48
2023-12-22T00:24:53.795Z,17.48
2023-12-22T00:25:05.786Z,17.45
2023-12-22T00:25:17.798Z,17.45
2023-12-22T00:25:28.797Z,17.44
2023-12-22T00:25:39.834Z,17.45
2023-12-22T00:25:50.888Z,17.45
2023-12-22T00:26:01.753Z,17.46
2023-12-22T00:26:12.788Z,17.46
2023-12-22T00:26:23.802Z,17.46
2023-12-22T00:26:35.793Z,17.46
2023-12-22T00:26:47.767Z,17.46
2023-12-22T00:26:59.759Z,17.46
2023-12-22T00:27:10.818Z,17.45
2023-12-22T00:27:21.759Z,17.44
2023-12-22T00:27:33.760Z,17.46
2023-12-22T00:27:45.812Z,17.46
2023-12-22T00:27:57.767Z,17.46
2023-12-22T00:28:09.754Z,17.45
2023-12-22T00:28:20.786Z,17.45
2023-12-22T00:28:32.812Z,17.45
2023-12-22T00:28:44.815Z,17.46
2023-12-22T00:28:56.838Z,17.45
2023-12-22T00:29:08.784Z,17.45
2023-12-22T00:29:21.515Z,17.45
2023-12-22T00:29:32.802Z,17.45
2023-12-22T00:29:44.799Z,17.42
2023-12-22T00:29:56.786Z,17.41
2023-12-22T00:30:08.786Z,17.42
2023-12-22T00:30:20.787Z,17.42
2023-12-22T00:30:32.778Z,17.42
2023-12-22T00:30:44.780Z,17.41
2023-12-22T00:30:56.759Z,17.41
2023-12-22T00:31:08.786Z,17.42
2023-12-22T00:31:20.827Z,17.42
2023-12-22T00:31:31.806Z,17.42
2023-12-22T00:31:43.824Z,17.42
2023-12-22T00:31:55.817Z,17.44
2023-12-22T00:32:07.828Z,17.42
2023-12-22T00:32:19.764Z,17.42
2023-12-22T00:32:30.826Z,17.42
2023-12-22T00:32:41.844Z,17.44
2023-12-22T00:32:53.872Z,17.44
2023-12-22T00:33:04.888Z,17.44
2023-12-22T00:33:16.816Z,17.45
2023-12-22T00:33:28.870Z,17.45
2023-12-22T00:33:39.748Z,17.44
2023-12-22T00:33:50.861Z,17.44
2023-12-22T00:34:02.814Z,17.44
2023-12-22T00:34:13.829Z,17.44
2023-12-22T00:34:24.791Z,17.44
2023-12-22T00:34:35.880Z,17.45
2023-12-22T00:34:47.820Z,17.44
2023-12-22T00:34:58.785Z,17.45
2023-12-22T00:35:09.739Z,17.45
2023-12-22T00:35:20.753Z,17.44
2023-12-22T00:35:31.776Z,17.42
2023-12-22T00:35:43.785Z,17.44
2023-12-22T00:35:55.779Z,17.44
2023-12-22T00:36:07.761Z,17.42
2023-12-22T00:36:18.783Z,17.42
2023-12-22T00:36:30.773Z,17.44
2023-12-22T00:36:41.782Z,17.42
2023-12-22T00:36:53.760Z,17.42
2023-12-22T00:37:04.800Z,17.42
2023-12-22T00:37:15.768Z,17.41
2023-12-22T00:37:27.782Z,17.41
2023-12-22T00:37:38.778Z,17.42
2023-12-22T00:37:49.914Z,17.42
2023-12-22T00:38:00.767Z,17.42
2023-12-22T00:38:11.825Z,17.44
2023-12-22T00:38:23.827Z,17.44
2023-12-22T00:38:35.823Z,17.45
2023-12-22T00:38:47.806Z,17.45
2023-12-22T00:38:59.820Z,17.45
2023-12-22T00:39:11.852Z,17.46
2023-12-22T00:39:23.771Z,17.46
2023-12-22T00:39:34.814Z,17.46
2023-12-22T00:39:46.836Z,17.46
2023-12-22T00:39:58.728Z,17.45
2023-12-22T00:40:09.810Z,17.45
2023-12-22T00:40:21.805Z,17.44
2023-12-22T00:40:33.867Z,17.44
2023-12-22T00:40:45.828Z,17.44
2023-12-22T00:40:56.834Z,17.42
2023-12-22T00:41:07.769Z,17.42
2023-12-22T00:41:19.777Z,17.42
2023-12-22T00:41:31.772Z,17.42
2023-12-22T00:41:42.810Z,17.44
2023-12-22T00:41:54.809Z,17.42
2023-12-22T00:42:06.795Z,17.42
2023-12-22T00:42:18.779Z,17.44
2023-12-22T00:42:30.758Z,17.44
2023-12-22T00:42:41.794Z,17.44
2023-12-22T00:42:53.780Z,17.44
2023-12-22T00:43:05.788Z,17.44
2023-12-22T00:43:17.803Z,17.44
2023-12-22T00:43:28.769Z,17.42
2023-12-22T00:43:39.843Z,17.42
2023-12-22T00:43:50.874Z,17.42
2023-12-22T00:44:01.797Z,17.44
2023-12-22T00:44:12.739Z,17.45
2023-12-22T00:44:23.751Z,17.44
2023-12-22T00:44:35.763Z,17.42
2023-12-22T00:44:46.783Z,17.44
2023-12-22T00:44:58.758Z,17.42
2023-12-22T00:45:09.766Z,17.42
2023-12-22T00:45:20.783Z,17.42
2023-12-22T00:45:32.773Z,17.42
2023-12-22T00:45:44.764Z,17.44
2023-12-22T00:45:56.757Z,17.44
2023-12-22T00:46:07.775Z,17.42
2023-12-22T00:46:19.799Z,17.45
2023-12-22T00:46:31.802Z,17.42
2023-12-22T00:46:42.803Z,17.44
2023-12-22T00:46:53.830Z,17.42
2023-12-22T00:47:05.782Z,17.44
2023-12-22T00:47:17.806Z,17.44
2023-12-22T00:47:29.900Z,17.42
2023-12-22T00:47:41.748Z,17.44
2023-12-22T00:47:53.274Z,17.44
2023-12-22T00:48:03.847Z,17.44
2023-12-22T00:48:15.845Z,17.44
2023-12-22T00:48:26.869Z,17.45
2023-12-22T00:48:38.860Z,17.42
2023-12-22T00:48:50.804Z,17.44
2023-12-22T00:49:01.825Z,17.42
2023-12-22T00:49:12.859Z,17.42
2023-12-22T00:49:24.823Z,17.42
2023-12-22T00:49:36.816Z,17.44
2023-12-22T00:49:47.818Z,17.44
2023-12-22T00:49:58.804Z,17.42
2023-12-22T00:50:09.950Z,17.42
2023-12-22T00:50:21.776Z,17.45
2023-12-22T00:50:32.785Z,17.44
2023-12-22T00:50:43.798Z,17.45
2023-12-22T00:50:55.776Z,17.44
2023-12-22T00:51:07.765Z,17.45
2023-12-22T00:51:18.787Z,17.45
2023-12-22T00:51:30.771Z,17.44
2023-12-22T00:51:41.782Z,17.44
2023-12-22T00:51:52.794Z,17.42
2023-12-22T00:52:04.827Z,17.41
2023-12-22T00:52:16.862Z,17.39
2023-12-22T00:52:27.806Z,17.39
2023-12-22T00:52:39.819Z,17.41
2023-12-22T00:52:51.861Z,17.38
2023-12-22T00:53:03.783Z,17.38
2023-12-22T00:53:15.772Z,17.39
2023-12-22T00:53:27.769Z,17.39
2023-12-22T00:53:38.795Z,17.39
2023-12-22T00:53:50.777Z,17.39
2023-12-22T00:54:02.784Z,17.41
2023-12-22T00:54:14.772Z,17.39
2023-12-22T00:54:26.782Z,17.42
2023-12-22T00:54:37.801Z,17.41
2023-12-22T00:54:49.814Z,17.41
2023-12-22T00:55:01.814Z,17.39
2023-12-22T00:55:13.945Z,17.39
2023-12-22T00:55:25.827Z,17.39
2023-12-22T00:55:36.810Z,17.41
2023-12-22T00:55:47.815Z,17.41
2023-12-22T00:55:58.839Z,17.41
2023-12-22T00:56:10.772Z,17.41
2023-12-22T00:56:21.806Z,17.42
2023-12-22T00:56:33.789Z,17.42
2023-12-22T00:56:45.768Z,17.41
2023-12-22T00:56:57.776Z,17.42
2023-12-22T00:57:09.767Z,17.42
2023-12-22T00:57:20.771Z,17.42
2023-12-22T00:57:32.757Z,17.42
2023-12-22T00:57:43.774Z,17.44
2023-12-22T00:57:55.758Z,17.44
2023-12-22T00:58:06.793Z,17.44
2023-12-22T00:58:18.792Z,17.45
2023-12-22T00:58:29.848Z,17.45
2023-12-22T00:58:41.855Z,17.46
2023-12-22T00:58:58.289Z,17.46
2023-12-22T00:59:11.578Z,17.45
2023-12-22T00:59:16.924Z,17.45
2023-12-22T00:59:26.830Z,17.45
2023-12-22T00:59:37.826Z,17.44
2023-12-22T00:59:49.745Z,17.45
2023-12-22T01:00:00.774Z,17.42
2023-12-22T01:00:12.758Z,17.45
2023-12-22T01:00:23.789Z,17.44
2023-12-22T01:00:35.798Z,17.44
2023-12-22T01:00:47.831Z,17.44
2023-12-22T01:00:58.826Z,17.44
2023-12-22T01:01:10.860Z,17.44
2023-12-22T01:01:21.759Z,17.44
2023-12-22T01:01:32.796Z,17.42
2023-12-22T01:01:43.761Z,17.42
2023-12-22T01:01:54.899Z,17.41
2023-12-22T01:02:05.780Z,17.42
2023-12-22T01:02:17.763Z,17.41
2023-12-22T01:02:28.782Z,17.42
2023-12-22T01:02:40.812Z,17.44
2023-12-22T01:02:52.824Z,17.42
2023-12-22T01:03:04.749Z,17.41
2023-12-22T01:03:15.800Z,17.42
2023-12-22T01:03:26.778Z,17.42
2023-12-22T01:03:37.901Z,17.39
2023-12-22T01:03:49.787Z,17.42
2023-12-22T01:04:01.786Z,17.42
2023-12-22T01:04:13.965Z,17.42
2023-12-22T01:04:25.739Z,17.41
2023-12-22T01:04:36.861Z,17.41
2023-12-22T01:04:49.057Z,17.42
2023-12-22T01:05:00.902Z,17.41
2023-12-22T01:05:12.849Z,17.42
2023-12-22T01:05:23.961Z,17.41
2023-12-22T01:05:35.923Z,17.41
2023-12-22T01:05:47.944Z,17.41
2023-12-22T01:05:59.959Z,17.42
2023-12-22T01:06:10.869Z,17.42
2023-12-22T01:06:25.240Z,17.42
2023-12-22T01:06:33.881Z,17.42
2023-12-22T01:06:45.882Z,17.42
2023-12-22T01:06:57.785Z,17.41
2023-12-22T01:07:09.761Z,17.39
2023-12-22T01:07:20.836Z,17.41
2023-12-22T01:07:32.902Z,17.41
2023-12-22T01:07:43.840Z,17.41
2023-12-22T01:07:54.802Z,17.42
2023-12-22T01:08:06.874Z,17.39
2023-12-22T01:08:18.763Z,17.41
2023-12-22T01:08:29.796Z,17.41
2023-12-22T01:08:41.789Z,17.41
2023-12-22T01:08:53.768Z,17.44
2023-12-22T01:09:04.778Z,17.42
2023-12-22T01:09:15.791Z,17.41
2023-12-22T01:09:27.766Z,17.42
2023-12-22T01:09:39.757Z,17.39
2023-12-22T01:09:50.773Z,17.39
2023-12-22T01:10:02.843Z,17.39
2023-12-22T01:10:13.794Z,17.39
2023-12-22T01:10:25.820Z,17.38
2023-12-22T01:10:37.829Z,17.38
2023-12-22T01:10:49.832Z,17.38
2023-12-22T01:11:01.769Z,17.36
2023-12-22T01:11:13.754Z,17.36
2023-12-22T01:11:24.774Z,17.36
2023-12-22T01:11:35.797Z,17.36
2023-12-22T01:11:47.759Z,17.36
2023-12-22T01:11:58.891Z,17.38
2023-12-22T01:12:10.822Z,17.38
2023-12-22T01:12:22.852Z,17.38
2023-12-22T01:12:34.802Z,17.36
2023-12-22T01:12:45.899Z,17.34
2023-12-22T01:12:57.796Z,17.36
2023-12-22T01:13:09.801Z,17.36
2023-12-22T01:13:21.811Z,17.38
2023-12-22T01:13:33.821Z,17.38
2023-12-22T01:13:45.860Z,17.39
2023-12-22T01:13:57.791Z,17.38
2023-12-22T01:14:09.786Z,17.38
2023-12-22T01:14:21.782Z,17.36
2023-12-22T01:14:33.780Z,17.38
2023-12-22T01:14:45.779Z,17.38
2023-12-22T01:14:57.760Z,17.36
2023-12-22T01:15:08.778Z,17.39
2023-12-22T01:15:20.803Z,17.38
2023-12-22T01:15:32.801Z,17.38
2023-12-22T01:15:44.837Z,17.38
2023-12-22T01:15:56.770Z,17.38
2023-12-22T01:16:07.785Z,17.38
2023-12-22T01:16:19.826Z,17.38
2023-12-22T01:16:31.851Z,17.38
2023-12-22T01:16:43.803Z,17.38
2023-12-22T01:16:54.898Z,17.39
2023-12-22T01:17:05.770Z,17.38
2023-12-22T01:17:17.760Z,17.36
2023-12-22T01:17:28.881Z,17.36
2023-12-22T01:17:39.885Z,17.39
2023-12-22T01:17:51.155Z,17.39
2023-12-22T01:18:02.876Z,17.38
2023-12-22T01:18:13.880Z,17.38
2023-12-22T01:18:25.842Z,17.39
2023-12-22T01:18:37.866Z,17.39
2023-12-22T01:18:49.844Z,17.39
2023-12-22T01:19:01.965Z,17.39
2023-12-22T01:19:13.865Z,17.39
2023-12-22T01:19:24.816Z,17.39
2023-12-22T01:19:35.805Z,17.41
2023-12-22T01:19:46.836Z,17.39
2023-12-22T01:19:57.870Z,17.39
2023-12-22T01:20:09.774Z,17.38
2023-12-22T01:20:21.797Z,17.39
2023-12-22T01:20:33.807Z,17.38
2023-12-22T01:20:45.802Z,17.38
2023-12-22T01:20:57.779Z,17.38
2023-12-22T01:21:09.760Z,17.36
2023-12-22T01:21:20.797Z,17.38
2023-12-22T01:21:32.810Z,17.38
2023-12-22T01:21:44.819Z,17.36
2023-12-22T01:21:56.804Z,17.39
2023-12-22T01:22:08.778Z,17.38
2023-12-22T01:22:20.876Z,17.39
2023-12-22T01:22:32.835Z,17.38
2023-12-22T01:22:43.817Z,17.39
2023-12-22T01:22:55.908Z,17.39
2023-12-22T01:23:07.759Z,17.38
2023-12-22T01:23:19.757Z,17.39
2023-12-22T01:23:30.783Z,17.38
2023-12-22T01:23:42.767Z,17.39
2023-12-22T01:23:53.793Z,17.39
2023-12-22T01:24:05.780Z,17.38
2023-12-22T01:24:17.755Z,17.39
2023-12-22T01:24:28.789Z,17.39
2023-12-22T01:24:39.794Z,17.38
2023-12-22T01:24:51.790Z,17.39
2023-12-22T01:25:03.778Z,17.39
2023-12-22T01:25:14.840Z,17.39
2023-12-22T01:25:25.838Z,17.39
2023-12-22T01:25:36.832Z,17.39
2023-12-22T01:25:47.798Z,17.39
2023-12-22T01:25:58.785Z,17.38
2023-12-22T01:26:09.751Z,17.39
2023-12-22T01:26:20.774Z,17.39
2023-12-22T01:26:32.760Z,17.39
2023-12-22T01:26:43.777Z,17.41
2023-12-22T01:26:55.771Z,17.39
2023-12-22T01:27:07.794Z,17.39
2023-12-22T01:27:19.795Z,17.39
2023-12-22T01:27:31.776Z,17.39
2023-12-22T01:27:43.762Z,17.41
2023-12-22T01:27:54.780Z,17.41
2023-12-22T01:28:06.772Z,17.36
2023-12-22T01:28:17.829Z,17.41
2023-12-22T01:28:28.836Z,17.41
2023-12-22T01:28:40.813Z,17.42
2023-12-22T01:28:51.871Z,17.42
2023-12-22T01:29:02.860Z,17.42
2023-12-22T01:29:14.770Z,17.42
2023-12-22T01:29:25.783Z,17.41
2023-12-22T01:29:37.774Z,17.42
2023-12-22T01:29:48.782Z,17.39
2023-12-22T01:30:00.770Z,17.38
2023-12-22T01:30:11.771Z,17.38
2023-12-22T01:30:23.772Z,17.38
2023-12-22T01:30:34.792Z,17.38
2023-12-22T01:30:46.794Z,17.38
2023-12-22T01:30:58.812Z,17.36
2023-12-22T01:31:10.816Z,17.34
2023-12-22T01:31:22.847Z,17.36
2023-12-22T01:31:34.767Z,17.36
2023-12-22T01:31:46.851Z,17.38
2023-12-22T01:31:57.838Z,17.36
2023-12-22T01:32:09.748Z,17.36
2023-12-22T01:32:20.787Z,17.38
2023-12-22T01:32:32.800Z,17.36
2023-12-22T01:32:44.822Z,17.36
2023-12-22T01:32:55.805Z,17.36
2023-12-22T01:33:06.896Z,17.36
2023-12-22T01:33:17.863Z,17.36
2023-12-22T01:33:28.879Z,17.36
2023-12-22T01:33:40.807Z,17.38
2023-12-22T01:33:52.874Z,17.39
2023-12-22T01:34:04.839Z,17.38
2023-12-22T01:34:16.776Z,17.41
2023-12-22T01:34:27.762Z,17.41
2023-12-22T01:34:39.802Z,17.42
2023-12-22T01:34:50.778Z,17.41
2023-12-22T01:35:02.774Z,17.41
2023-12-22T01:35:14.756Z,17.42
2023-12-22T01:35:25.769Z,17.42
2023-12-22T01:35:37.758Z,17.44
2023-12-22T01:35:48.761Z,17.42
2023-12-22T01:35:59.800Z,17.42
2023-12-22T01:36:11.792Z,17.41
2023-12-22T01:36:22.752Z,17.42
2023-12-22T01:36:33.791Z,17.39
2023-12-22T01:36:45.777Z,17.39
2023-12-22T01:36:57.780Z,17.38
2023-12-22T01:37:09.758Z,17.39
2023-12-22T01:37:21.802Z,17.36
2023-12-22T01:37:32.849Z,17.38
2023-12-22T01:37:44.773Z,17.39
2023-12-22T01:37:55.869Z,17.41
2023-12-22T01:38:06.766Z,17.39
2023-12-22T01:38:17.748Z,17.39
2023-12-22T01:38:28.762Z,17.39
2023-12-22T01:38:39.779Z,17.39
2023-12-22T01:38:51.767Z,17.39
2023-12-22T01:39:05.540Z,17.39
2023-12-22T01:39:14.771Z,17.38
2023-12-22T01:39:26.758Z,17.38
2023-12-22T01:39:37.777Z,17.39
2023-12-22T01:39:49.763Z,17.39
2023-12-22T01:40:00.780Z,17.38
2023-12-22T01:40:12.760Z,17.38
2023-12-22T01:40:23.808Z,17.36
2023-12-22T01:40:34.778Z,17.38
2023-12-22T01:40:46.809Z,17.38
2023-12-22T01:40:57.894Z,17.36
2023-12-22T01:41:08.732Z,17.34
2023-12-22T01:41:19.762Z,17.38
2023-12-22T01:41:31.761Z,17.39
2023-12-22T01:41:42.783Z,17.38
2023-12-22T01:41:54.780Z,17.38
2023-12-22T01:42:06.784Z,17.38
2023-12-22T01:42:18.780Z,17.38
2023-12-22T01:42:30.798Z,17.39
2023-12-22T01:42:42.795Z,17.39
2023-12-22T01:42:54.782Z,17.38
2023-12-22T01:43:06.765Z,17.36
2023-12-22T01:43:18.802Z,17.38
2023-12-22T01:43:30.801Z,17.38
2023-12-22T01:43:42.899Z,17.38
2023-12-22T01:43:53.809Z,17.38
2023-12-22T01:44:04.748Z,17.36
2023-12-22T01:44:15.782Z,17.39
2023-12-22T01:44:27.781Z,17.38
2023-12-22T01:44:38.823Z,17.38
2023-12-22T01:44:50.798Z,17.39
2023-12-22T01:45:02.829Z,17.39
2023-12-22T01:45:13.741Z,17.39
2023-12-22T01:45:24.786Z,17.38
2023-12-22T01:45:36.783Z,17.38
2023-12-22T01:45:48.781Z,17.38
2023-12-22T01:45:59.786Z,17.38
2023-12-22T01:46:10.725Z,17.39
2023-12-22T01:46:21.811Z,17.39
2023-12-22T01:46:32.808Z,17.39
2023-12-22T01:46:43.784Z,17.41
2023-12-22T01:46:54.845Z,17.39
2023-12-22T01:47:06.768Z,17.38
2023-12-22T01:47:17.776Z,17.38
2023-12-22T01:47:29.787Z,17.39
2023-12-22T01:47:40.875Z,17.39
2023-12-22T01:47:53.131Z,17.39
2023-12-22T01:48:03.837Z,17.39
2023-12-22T01:48:14.916Z,17.38
2023-12-22T01:48:26.906Z,17.39
2023-12-22T01:48:38.802Z,17.39
2023-12-22T01:48:49.820Z,17.41
2023-12-22T01:49:00.858Z,17.39
2023-12-22T01:49:12.964Z,17.41
2023-12-22T01:49:24.941Z,17.41
2023-12-22T01:49:36.786Z,17.42
2023-12-22T01:49:48.879Z,17.39
2023-12-22T01:50:00.881Z,17.41
2023-12-22T01:50:12.295Z,17.39
2023-12-22T01:50:22.766Z,17.39
2023-12-22T01:50:34.763Z,17.38
2023-12-22T01:50:45.814Z,17.38
2023-12-22T01:50:57.813Z,17.36
2023-12-22T01:51:09.804Z,17.38
2023-12-22T01:51:21.802Z,17.36
2023-12-22T01:51:33.799Z,17.38
2023-12-22T01:51:45.777Z,17.36
2023-12-22T01:51:57.779Z,17.34
2023-12-22T01:52:09.767Z,17.36
2023-12-22T01:52:21.784Z,17.38
2023-12-22T01:52:33.833Z,17.34
2023-12-22T01:52:45.885Z,17.38
2023-12-22T01:52:57.832Z,17.39
2023-12-22T01:53:08.774Z,17.39
2023-12-22T01:53:20.769Z,17.41
2023-12-22T01:53:31.784Z,17.39
2023-12-22T01:53:43.789Z,17.39
2023-12-22T01:53:55.780Z,17.41
2023-12-22T01:54:07.778Z,17.38
2023-12-22T01:54:19.768Z,17.39
2023-12-22T01:54:31.751Z,17.41
2023-12-22T01:54:42.766Z,17.42
2023-12-22T01:54:53.782Z,17.42
2023-12-22T01:55:05.765Z,17.42
2023-12-22T01:55:17.793Z,17.42
2023-12-22T01:55:29.858Z,17.42
2023-12-22T01:55:40.834Z,17.42
2023-12-22T01:55:52.836Z,17.42
2023-12-22T01:56:03.818Z,17.42
2023-12-22T01:56:14.748Z,17.42
2023-12-22T01:56:25.773Z,17.42
2023-12-22T01:56:36.792Z,17.41
2023-12-22T01:56:48.804Z,17.42
2023-12-22T01:57:00.812Z,17.41
2023-12-22T01:57:11.788Z,17.41
2023-12-22T01:57:23.786Z,17.41
2023-12-22T01:57:35.764Z,17.42
2023-12-22T01:57:47.207Z,17.42
2023-12-22T01:57:58.786Z,17.42
2023-12-22T01:58:10.767Z,17.44
2023-12-22T01:58:22.783Z,17.42
2023-12-22T01:58:34.808Z,17.44
2023-12-22T01:58:45.765Z,17.44
2023-12-22T01:58:57.778Z,17.44
2023-12-22T01:59:08.784Z,17.42
2023-12-22T01:59:20.778Z,17.44
2023-12-22T01:59:32.764Z,17.44
2023-12-22T01:59:44.765Z,17.42
2023-12-22T01:59:55.778Z,17.42
2023-12-22T02:00:07.756Z,17.42
2023-12-22T02:00:18.787Z,17.39
2023-12-22T02:00:30.782Z,17.39
2023-12-22T02:00:41.780Z,17.39
2023-12-22T02:00:52.883Z,17.38
2023-12-22T02:01:04.850Z,17.38
2023-12-22T02:01:16.837Z,17.38
2023-12-22T02:01:28.917Z,17.38
2023-12-22T02:01:39.842Z,17.39
2023-12-22T02:01:50.812Z,17.39
2023-12-22T02:02:01.789Z,17.38
2023-12-22T02:02:12.789Z,17.38
2023-12-22T02:02:23.786Z,17.38
2023-12-22T02:02:35.765Z,17.39
2023-12-22T02:02:47.764Z,17.41
2023-12-22T02:02:58.783Z,17.39
2023-12-22T02:03:10.803Z,17.38
2023-12-22T02:03:21.794Z,17.39
2023-12-22T02:03:33.814Z,17.39
2023-12-22T02:03:44.811Z,17.39
2023-12-22T02:03:55.900Z,17.38
2023-12-22T02:04:06.773Z,17.39
2023-12-22T02:04:18.794Z,17.38
2023-12-22T02:04:29.823Z,17.39
2023-12-22T02:04:40.816Z,17.41
2023-12-22T02:04:52.822Z,17.41
2023-12-22T02:05:03.767Z,17.39
2023-12-22T02:05:15.790Z,17.41
2023-12-22T02:05:26.825Z,17.39
2023-12-22T02:05:38.761Z,17.41
2023-12-22T02:05:49.843Z,17.42
2023-12-22T02:06:00.865Z,17.41
2023-12-22T02:06:12.822Z,17.41
2023-12-22T02:06:24.776Z,17.39
2023-12-22T02:06:36.810Z,17.41
2023-12-22T02:06:48.788Z,17.39
2023-12-22T02:07:00.778Z,17.39
2023-12-22T02:07:12.779Z,17.41
2023-12-22T02:07:24.783Z,17.42
2023-12-22T02:07:36.833Z,17.42
2023-12-22T02:07:48.072Z,17.41
2023-12-22T02:07:59.844Z,17.39
2023-12-22T02:08:11.789Z,17.39
2023-12-22T02:08:23.803Z,17.38
2023-12-22T02:08:35.810Z,17.39
2023-12-22T02:08:47.799Z,17.38
2023-12-22T02:08:59.790Z,17.39
2023-12-22T02:09:11.780Z,17.39
2023-12-22T02:09:23.776Z,17.39
2023-12-22T02:09:35.760Z,17.39
2023-12-22T02:09:47.758Z,17.39
2023-12-22T02:09:58.777Z,17.38
2023-12-22T02:10:10.777Z,17.38
2023-12-22T02:10:21.794Z,17.38
2023-12-22T02:10:33.793Z,17.36
2023-12-22T02:10:44.779Z,17.38
2023-12-22T02:10:55.855Z,17.39
2023-12-22T02:11:07.787Z,17.36
2023-12-22T02:11:19.768Z,17.38
2023-12-22T02:11:30.796Z,17.39
2023-12-22T02:11:41.751Z,17.39
2023-12-22T02:11:52.772Z,17.41
2023-12-22T02:12:04.762Z,17.41
2023-12-22T02:12:15.781Z,17.42
2023-12-22T02:12:27.765Z,17.42
2023-12-22T02:12:38.820Z,17.44
2023-12-22T02:12:50.803Z,17.44
2023-12-22T02:13:02.821Z,17.42
2023-12-22T02:13:14.872Z,17.42
2023-12-22T02:13:26.822Z,17.41
2023-12-22T02:13:38.851Z,17.41
2023-12-22T02:13:50.837Z,17.41
2023-12-22T02:14:02.792Z,17.39
2023-12-22T02:14:14.771Z,17.41
2023-12-22T02:14:26.757Z,17.39
2023-12-22T02:14:39.092Z,17.39
2023-12-22T02:14:48.761Z,17.39
2023-12-22T02:15:00.789Z,17.38
2023-12-22T02:15:12.779Z,17.38
2023-12-22T02:15:24.771Z,17.39
2023-12-22T02:15:36.760Z,17.39
2023-12-22T02:15:47.791Z,17.39
2023-12-22T02:15:59.780Z,17.39
2023-12-22T02:16:10.810Z,17.36
2023-12-22T02:16:22.797Z,17.41
2023-12-22T02:16:34.823Z,17.41
2023-12-22T02:16:45.779Z,17.39
2023-12-22T02:16:56.914Z,17.41
2023-12-22T02:17:08.837Z,17.41
2023-12-22T02:17:20.819Z,17.42
2023-12-22T02:17:32.821Z,17.42
2023-12-22T02:17:44.868Z,17.42
2023-12-22T02:17:56.807Z,17.42
2023-12-22T02:18:07.776Z,17.42
2023-12-22T02:18:18.867Z,17.41
2023-12-22T02:18:30.847Z,17.41
2023-12-22T02:18:41.821Z,17.42
2023-12-22T02:18:52.837Z,17.41
2023-12-22T02:19:03.839Z,17.44
2023-12-22T02:19:14.842Z,17.44
2023-12-22T02:19:25.801Z,17.42
2023-12-22T02:19:37.834Z,17.42
2023-12-22T02:19:48.798Z,17.42
2023-12-22T02:20:00.872Z,17.44
2023-12-22T02:20:11.770Z,17.42
2023-12-22T02:20:23.789Z,17.42
2023-12-22T02:20:35.773Z,17.41
2023-12-22T02:20:47.783Z,17.42
2023-12-22T02:20:58.817Z,17.44
2023-12-22T02:21:10.824Z,17.42
2023-12-22T02:21:22.818Z,17.42
2023-12-22T02:21:34.811Z,17.42
2023-12-22T02:21:46.725Z,17.41
2023-12-22T02:21:57.772Z,17.39
2023-12-22T02:22:10.357Z,17.39
2023-12-22T02:22:20.832Z,17.36
2023-12-22T02:22:31.830Z,17.36
2023-12-22T02:22:42.786Z,17.36
2023-12-22T02:22:54.869Z,17.36
2023-12-22T02:23:05.757Z,17.34
2023-12-22T02:23:16.807Z,17.36
2023-12-22T02:23:28.798Z,17.38
2023-12-22T02:23:40.825Z,17.34
2023-12-22T02:23:52.805Z,17.36
2023-12-22T02:24:04.802Z,17.36
2023-12-22T02:24:16.802Z,17.34
2023-12-22T02:24:28.790Z,17.34
2023-12-22T02:24:40.780Z,17.33
2023-12-22T02:24:51.795Z,17.33
2023-12-22T02:25:03.800Z,17.34
2023-12-22T02:25:15.840Z,17.36
2023-12-22T02:25:26.800Z,17.36
2023-12-22T02:25:37.788Z,17.36
2023-12-22T02:25:48.740Z,17.36
2023-12-22T02:25:59.816Z,17.38
2023-12-22T02:26:10.784Z,17.39
2023-12-22T02:26:22.781Z,17.42
2023-12-22T02:26:34.767Z,17.41
2023-12-22T02:26:45.789Z,17.41
2023-12-22T02:26:57.781Z,17.41
2023-12-22T02:27:09.811Z,17.39
2023-12-22T02:27:21.821Z,17.39
2023-12-22T02:27:33.821Z,17.39
2023-12-22T02:27:45.993Z,17.39
2023-12-22T02:27:57.753Z,17.39
2023-12-22T02:28:08.803Z,17.36
2023-12-22T02:28:20.829Z,17.38
2023-12-22T02:28:31.808Z,17.38
2023-12-22T02:28:42.786Z,17.38
2023-12-22T02:28:53.875Z,17.38